sensor_id;sensor_type;location;lat;lon;timestamp;pressure;altitude;pressure_sealevel;temperature;humidity
11223;BME280;5668;52.012;8.724;2023-05-07T00:00:10;100338.84;;;16.23;81.97
11223;BME280;5668;52.012;8.724;2023-05-07T00:02:37;100327.09;;;16.18;82.69
11223;BME280;5668;52.012;8.724;2023-05-07T00:05:06;100338.72;;;16.15;83.04
11223;BME280;5668;52.012;8.724;2023-05-07T00:07:34;100331.94;;;16.13;82.72
11223;BME280;5668;52.012;8.724;2023-05-07T00:10:02;100328.50;;;16.12;82.72
11223;BME280;5668;52.012;8.724;2023-05-07T00:12:29;100331.25;;;16.11;83.04
11223;BME280;5668;52.012;8.724;2023-05-07T00:14:57;100333.19;;;16.09;83.19
11223;BME280;5668;52.012;8.724;2023-05-07T00:17:24;100336.81;;;16.08;82.88
11223;BME280;5668;52.012;8.724;2023-05-07T00:19:51;100338.34;;;16.01;83.44
11223;BME280;5668;52.012;8.724;2023-05-07T00:22:19;100331.69;;;15.97;83.45
11223;BME280;5668;52.012;8.724;2023-05-07T00:24:47;100340.97;;;15.91;83.24
11223;BME280;5668;52.012;8.724;2023-05-07T00:27:14;100334.19;;;15.88;83.54
11223;BME280;5668;52.012;8.724;2023-05-07T00:29:42;100334.50;;;15.85;83.79
11223;BME280;5668;52.012;8.724;2023-05-07T00:32:09;100341.28;;;15.78;83.90
11223;BME280;5668;52.012;8.724;2023-05-07T00:34:36;100342.75;;;15.71;83.52
11223;BME280;5668;52.012;8.724;2023-05-07T00:37:05;100337.00;;;15.68;84.65
11223;BME280;5668;52.012;8.724;2023-05-07T00:39:33;100336.59;;;15.63;84.75
11223;BME280;5668;52.012;8.724;2023-05-07T00:42:02;100341.84;;;15.63;84.65
11223;BME280;5668;52.012;8.724;2023-05-07T00:44:29;100346.25;;;15.62;84.61
11223;BME280;5668;52.012;8.724;2023-05-07T00:46:57;100343.19;;;15.57;85.03
11223;BME280;5668;52.012;8.724;2023-05-07T00:49:29;100351.69;;;15.49;85.08
11223;BME280;5668;52.012;8.724;2023-05-07T00:52:02;100347.28;;;15.50;84.99
11223;BME280;5668;52.012;8.724;2023-05-07T00:54:29;100343.72;;;15.51;85.39
11223;BME280;5668;52.012;8.724;2023-05-07T00:56:56;100337.66;;;15.50;85.18
11223;BME280;5668;52.012;8.724;2023-05-07T00:59:25;100339.31;;;15.52;85.11
11223;BME280;5668;52.012;8.724;2023-05-07T01:01:52;100332.53;;;15.49;84.97
11223;BME280;5668;52.012;8.724;2023-05-07T01:04:22;100333.78;;;15.45;85.72
11223;BME280;5668;52.012;8.724;2023-05-07T01:06:51;100342.22;;;15.48;85.70
11223;BME280;5668;52.012;8.724;2023-05-07T01:09:19;100339.59;;;15.48;85.64
11223;BME280;5668;52.012;8.724;2023-05-07T01:11:48;100332.69;;;15.47;85.52
11223;BME280;5668;52.012;8.724;2023-05-07T01:14:17;100341.38;;;15.48;85.58
11223;BME280;5668;52.012;8.724;2023-05-07T01:16:46;100341.38;;;15.48;85.27
11223;BME280;5668;52.012;8.724;2023-05-07T01:19:14;100339.59;;;15.48;84.74
11223;BME280;5668;52.012;8.724;2023-05-07T01:21:46;100343.00;;;15.49;85.10
11223;BME280;5668;52.012;8.724;2023-05-07T01:24:15;100337.66;;;15.50;84.73
11223;BME280;5668;52.012;8.724;2023-05-07T01:26:43;100339.44;;;15.50;85.08
11223;BME280;5668;52.012;8.724;2023-05-07T01:29:11;100346.47;;;15.49;84.89
11223;BME280;5668;52.012;8.724;2023-05-07T01:31:39;100346.63;;;15.48;84.86
11223;BME280;5668;52.012;8.724;2023-05-07T01:34:07;100340.69;;;15.46;84.91
11223;BME280;5668;52.012;8.724;2023-05-07T01:36:36;100339.28;;;15.42;84.99
11223;BME280;5668;52.012;8.724;2023-05-07T01:39:06;100357.91;;;15.39;85.66
11223;BME280;5668;52.012;8.724;2023-05-07T01:41:35;100353.50;;;15.39;85.97
11223;BME280;5668;52.012;8.724;2023-05-07T01:44:03;100358.31;;;15.34;85.85
11223;BME280;5668;52.012;8.724;2023-05-07T01:46:33;100348.13;;;15.31;86.03
11223;BME280;5668;52.012;8.724;2023-05-07T01:49:01;100348.38;;;15.28;85.99
11223;BME280;5668;52.012;8.724;2023-05-07T01:51:28;100348.38;;;15.28;86.02
11223;BME280;5668;52.012;8.724;2023-05-07T01:53:56;100353.63;;;15.28;85.84
11223;BME280;5668;52.012;8.724;2023-05-07T01:56:24;100346.19;;;15.24;85.56
11223;BME280;5668;52.012;8.724;2023-05-07T01:58:53;100352.50;;;15.21;86.30
11223;BME280;5668;52.012;8.724;2023-05-07T02:01:20;100354.16;;;15.22;86.57
11223;BME280;5668;52.012;8.724;2023-05-07T02:03:47;100350.84;;;15.20;86.57
11223;BME280;5668;52.012;8.724;2023-05-07T02:06:15;100348.66;;;15.16;86.40
11223;BME280;5668;52.012;8.724;2023-05-07T02:08:42;100344.50;;;15.13;86.53
11223;BME280;5668;52.012;8.724;2023-05-07T02:11:09;100348.09;;;15.12;86.88
11223;BME280;5668;52.012;8.724;2023-05-07T02:13:36;100354.97;;;15.13;87.07
11223;BME280;5668;52.012;8.724;2023-05-07T02:16:06;100347.53;;;15.08;87.08
11223;BME280;5668;52.012;8.724;2023-05-07T02:18:33;100351.94;;;15.08;87.47
11223;BME280;5668;52.012;8.724;2023-05-07T02:21:01;100351.13;;;15.07;87.39
11223;BME280;5668;52.012;8.724;2023-05-07T02:23:28;100353.03;;;15.05;87.63
11223;BME280;5668;52.012;8.724;2023-05-07T02:25:55;100350.69;;;15.02;87.49
11223;BME280;5668;52.012;8.724;2023-05-07T02:28:23;100346.84;;;15.06;87.51
11223;BME280;5668;52.012;8.724;2023-05-07T02:30:50;100357.44;;;15.05;87.27
11223;BME280;5668;52.012;8.724;2023-05-07T02:33:19;100355.78;;;15.04;87.20
11223;BME280;5668;52.012;8.724;2023-05-07T02:35:46;100354.97;;;15.03;86.84
11223;BME280;5668;52.012;8.724;2023-05-07T02:38:13;100352.50;;;15.02;86.84
11223;BME280;5668;52.012;8.724;2023-05-07T02:40:40;100353.31;;;15.02;87.33
11223;BME280;5668;52.012;8.724;2023-05-07T02:43:07;100356.91;;;15.01;86.44
11223;BME280;5668;52.012;8.724;2023-05-07T02:45:35;100357.16;;;14.98;87.29
11223;BME280;5668;52.012;8.724;2023-05-07T02:48:03;100351.91;;;14.98;87.13
11223;BME280;5668;52.012;8.724;2023-05-07T02:50:32;100347.94;;;14.94;87.25
11223;BME280;5668;52.012;8.724;2023-05-07T02:53:00;100360.31;;;14.92;87.40
11223;BME280;5668;52.012;8.724;2023-05-07T02:55:27;100350.81;;;14.91;87.10
11223;BME280;5668;52.012;8.724;2023-05-07T02:57:58;100350.81;;;14.91;86.54
11223;BME280;5668;52.012;8.724;2023-05-07T03:00:42;100351.09;;;14.88;87.11
11223;BME280;5668;52.012;8.724;2023-05-07T03:03:09;100356.31;;;14.88;87.34
11223;BME280;5668;52.012;8.724;2023-05-07T03:05:38;100354.66;;;14.87;86.83
11223;BME280;5668;52.012;8.724;2023-05-07T03:08:05;100365.13;;;14.87;87.41
11223;BME280;5668;52.012;8.724;2023-05-07T03:10:32;100358.22;;;14.86;87.52
11223;BME280;5668;52.012;8.724;2023-05-07T03:13:00;100358.22;;;14.86;87.15
11223;BME280;5668;52.012;8.724;2023-05-07T03:15:27;100355.50;;;14.88;86.99
11223;BME280;5668;52.012;8.724;2023-05-07T03:17:55;100349.69;;;14.84;86.65
11223;BME280;5668;52.012;8.724;2023-05-07T03:20:22;100354.50;;;14.79;86.76
11223;BME280;5668;52.012;8.724;2023-05-07T03:22:51;100359.59;;;14.81;86.93
11223;BME280;5668;52.012;8.724;2023-05-07T03:25:18;100347.47;;;14.80;86.99
11223;BME280;5668;52.012;8.724;2023-05-07T03:27:45;100348.56;;;14.77;87.24
11223;BME280;5668;52.012;8.724;2023-05-07T03:30:13;100344.16;;;14.78;87.38
11223;BME280;5668;52.012;8.724;2023-05-07T03:32:40;100343.31;;;14.77;87.45
11223;BME280;5668;52.012;8.724;2023-05-07T03:35:07;100345.94;;;14.77;87.27
11223;BME280;5668;52.012;8.724;2023-05-07T03:37:34;100341.25;;;14.71;87.50
11223;BME280;5668;52.012;8.724;2023-05-07T03:40:04;100336.84;;;14.71;87.75
11223;BME280;5668;52.012;8.724;2023-05-07T03:42:31;100335.19;;;14.70;87.76
11223;BME280;5668;52.012;8.724;2023-05-07T03:44:59;100340.28;;;14.72;87.96
11223;BME280;5668;52.012;8.724;2023-05-07T03:47:26;100344.69;;;14.71;87.57
11223;BME280;5668;52.012;8.724;2023-05-07T03:49:53;100341.91;;;14.63;87.57
11223;BME280;5668;52.012;8.724;2023-05-07T03:52:20;100350.72;;;14.62;88.10
11223;BME280;5668;52.012;8.724;2023-05-07T03:54:52;100343.00;;;14.61;88.24
11223;BME280;5668;52.012;8.724;2023-05-07T03:57:20;100350.13;;;14.59;88.16
11223;BME280;5668;52.012;8.724;2023-05-07T03:59:47;100351.13;;;14.58;88.48
11223;BME280;5668;52.012;8.724;2023-05-07T04:02:15;100359.22;;;14.55;88.14
11223;BME280;5668;52.012;8.724;2023-05-07T04:04:42;100359.09;;;14.56;88.06
11223;BME280;5668;52.012;8.724;2023-05-07T04:07:09;100367.19;;;14.53;87.90
11223;BME280;5668;52.012;8.724;2023-05-07T04:09:36;100362.91;;;14.52;88.56
11223;BME280;5668;52.012;8.724;2023-05-07T04:12:04;100371.88;;;14.50;88.56
11223;BME280;5668;52.012;8.724;2023-05-07T04:14:33;100369.25;;;14.50;88.32
11223;BME280;5668;52.012;8.724;2023-05-07T04:17:00;100376.53;;;14.46;87.97
11223;BME280;5668;52.012;8.724;2023-05-07T04:19:28;100377.47;;;14.45;89.10
11223;BME280;5668;52.012;8.724;2023-05-07T04:21:55;100379.25;;;14.45;89.28
11223;BME280;5668;52.012;8.724;2023-05-07T04:24:22;100379.97;;;14.47;89.12
11223;BME280;5668;52.012;8.724;2023-05-07T04:26:50;100381.63;;;14.48;88.82
11223;BME280;5668;52.012;8.724;2023-05-07T04:29:18;100386.72;;;14.49;88.56
11223;BME280;5668;52.012;8.724;2023-05-07T04:31:47;100379.97;;;14.47;89.07
11223;BME280;5668;52.012;8.724;2023-05-07T04:34:14;100389.34;;;14.49;89.18
11223;BME280;5668;52.012;8.724;2023-05-07T04:36:42;100388.50;;;14.49;89.19
11223;BME280;5668;52.012;8.724;2023-05-07T04:39:09;100384.78;;;14.51;89.07
11223;BME280;5668;52.012;8.724;2023-05-07T04:41:37;100388.22;;;14.52;88.93
11223;BME280;5668;52.012;8.724;2023-05-07T04:44:04;100386.44;;;14.52;88.75
11223;BME280;5668;52.012;8.724;2023-05-07T04:46:32;100399.41;;;14.54;88.98
11223;BME280;5668;52.012;8.724;2023-05-07T04:49:01;100401.47;;;14.50;88.89
11223;BME280;5668;52.012;8.724;2023-05-07T04:51:29;100398.03;;;14.50;89.29
11223;BME280;5668;52.012;8.724;2023-05-07T04:53:58;100404.31;;;14.47;89.37
11223;BME280;5668;52.012;8.724;2023-05-07T04:56:28;100395.66;;;14.47;89.45
11223;BME280;5668;52.012;8.724;2023-05-07T04:58:55;100404.22;;;14.49;89.67
11223;BME280;5668;52.012;8.724;2023-05-07T05:01:23;100406.81;;;14.49;89.11
11223;BME280;5668;52.012;8.724;2023-05-07T05:03:50;100408.72;;;14.47;89.68
11223;BME280;5668;52.012;8.724;2023-05-07T05:06:18;100408.72;;;14.47;89.41
11223;BME280;5668;52.012;8.724;2023-05-07T05:08:46;100400.88;;;14.47;89.29
11223;BME280;5668;52.012;8.724;2023-05-07T05:11:13;100402.94;;;14.43;89.75
11223;BME280;5668;52.012;8.724;2023-05-07T05:13:40;100401.84;;;14.46;89.72
11223;BME280;5668;52.012;8.724;2023-05-07T05:16:08;100400.88;;;14.47;89.62
11223;BME280;5668;52.012;8.724;2023-05-07T05:18:35;100403.38;;;14.48;89.08
11223;BME280;5668;52.012;8.724;2023-05-07T05:21:04;100397.06;;;14.51;89.78
11223;BME280;5668;52.012;8.724;2023-05-07T05:23:32;100391.69;;;14.52;89.32
11223;BME280;5668;52.012;8.724;2023-05-07T05:26:00;100404.09;;;14.50;89.37
11223;BME280;5668;52.012;8.724;2023-05-07T05:28:27;100401.47;;;14.50;89.55
11223;BME280;5668;52.012;8.724;2023-05-07T05:30:54;100408.47;;;14.50;89.38
11223;BME280;5668;52.012;8.724;2023-05-07T05:33:22;100402.41;;;14.49;89.54
11223;BME280;5668;52.012;8.724;2023-05-07T05:35:50;100402.28;;;14.51;89.37
11223;BME280;5668;52.012;8.724;2023-05-07T05:38:17;100404.75;;;14.52;89.63
11223;BME280;5668;52.012;8.724;2023-05-07T05:40:46;100400.34;;;14.53;89.40
11223;BME280;5668;52.012;8.724;2023-05-07T05:43:14;100410.44;;;14.57;89.08
11223;BME280;5668;52.012;8.724;2023-05-07T05:45:41;100412.91;;;14.59;89.23
11223;BME280;5668;52.012;8.724;2023-05-07T05:48:09;100408.78;;;14.56;88.98
11223;BME280;5668;52.012;8.724;2023-05-07T05:50:36;100411.00;;;14.61;89.08
11223;BME280;5668;52.012;8.724;2023-05-07T05:53:03;100408.13;;;14.64;88.69
11223;BME280;5668;52.012;8.724;2023-05-07T05:55:31;100423.81;;;14.64;88.87
11223;BME280;5668;52.012;8.724;2023-05-07T05:58:00;100425.09;;;14.69;88.35
11223;BME280;5668;52.012;8.724;2023-05-07T06:00:28;100424.38;;;14.67;88.33
11223;BME280;5668;52.012;8.724;2023-05-07T06:02:55;100436.63;;;14.67;88.84
11223;BME280;5668;52.012;8.724;2023-05-07T06:05:22;100426.16;;;14.67;88.12
11223;BME280;5668;52.012;8.724;2023-05-07T06:07:50;100434.97;;;14.66;87.96
11223;BME280;5668;52.012;8.724;2023-05-07T06:10:17;100426.16;;;14.67;87.85
11223;BME280;5668;52.012;8.724;2023-05-07T06:12:45;100431.09;;;14.60;88.08
11223;BME280;5668;52.012;8.724;2023-05-07T06:15:14;100421.75;;;14.58;88.08
11223;BME280;5668;52.012;8.724;2023-05-07T06:17:41;100425.97;;;14.59;88.15
11223;BME280;5668;52.012;8.724;2023-05-07T06:20:10;100426.44;;;14.64;88.28
11223;BME280;5668;52.012;8.724;2023-05-07T06:22:37;100434.97;;;14.66;88.12
11223;BME280;5668;52.012;8.724;2023-05-07T06:25:06;100426.16;;;14.67;87.86
11223;BME280;5668;52.012;8.724;2023-05-07T06:27:33;100437.34;;;14.69;87.65
11223;BME280;5668;52.012;8.724;2023-05-07T06:30:00;100439.44;;;14.75;87.43
11223;BME280;5668;52.012;8.724;2023-05-07T06:32:29;100439.19;;;14.78;87.42
11223;BME280;5668;52.012;8.724;2023-05-07T06:34:56;100438.09;;;14.81;87.17
11223;BME280;5668;52.012;8.724;2023-05-07T06:37:23;100443.56;;;14.78;87.01
11223;BME280;5668;52.012;8.724;2023-05-07T06:39:51;100446.06;;;14.79;87.06
11223;BME280;5668;52.012;8.724;2023-05-07T06:42:18;100448.56;;;14.81;87.53
11223;BME280;5668;52.012;8.724;2023-05-07T06:44:45;100451.47;;;14.87;87.16
11223;BME280;5668;52.012;8.724;2023-05-07T06:47:12;100458.09;;;14.91;86.81
11223;BME280;5668;52.012;8.724;2023-05-07T06:49:41;100461.41;;;14.93;86.23
11223;BME280;5668;52.012;8.724;2023-05-07T06:52:08;100464.47;;;14.98;86.53
11223;BME280;5668;52.012;8.724;2023-05-07T06:54:35;100459.50;;;14.95;86.21
11223;BME280;5668;52.012;8.724;2023-05-07T06:57:03;100462.66;;;14.99;85.45
11223;BME280;5668;52.012;8.724;2023-05-07T06:59:30;100463.25;;;15.02;85.41
11223;BME280;5668;52.012;8.724;2023-05-07T07:01:57;100468.22;;;15.05;85.76
11223;BME280;5668;52.012;8.724;2023-05-07T07:04:24;100476.50;;;15.10;85.66
11223;BME280;5668;52.012;8.724;2023-05-07T07:06:54;100471.00;;;15.14;85.23
11223;BME280;5668;52.012;8.724;2023-05-07T07:09:22;100474.44;;;15.14;85.46
11223;BME280;5668;52.012;8.724;2023-05-07T07:11:49;100475.97;;;15.17;85.14
11223;BME280;5668;52.012;8.724;2023-05-07T07:14:17;100473.06;;;15.20;84.98
11223;BME280;5668;52.012;8.724;2023-05-07T07:16:44;100470.75;;;15.17;84.71
11223;BME280;5668;52.012;8.724;2023-05-07T07:19:12;100468.97;;;15.17;84.83
11223;BME280;5668;52.012;8.724;2023-05-07T07:21:41;100468.78;;;15.19;84.90
11223;BME280;5668;52.012;8.724;2023-05-07T07:24:09;100476.28;;;15.23;84.95
11223;BME280;5668;52.012;8.724;2023-05-07T07:26:36;100479.59;;;15.25;84.87
11223;BME280;5668;52.012;8.724;2023-05-07T07:29:05;100472.16;;;15.30;84.86
11223;BME280;5668;52.012;8.724;2023-05-07T07:31:33;100471.47;;;15.28;84.53
11223;BME280;5668;52.012;8.724;2023-05-07T07:34:00;100470.25;;;15.32;84.25
11223;BME280;5668;52.012;8.724;2023-05-07T07:36:28;100483.19;;;15.34;84.39
11223;BME280;5668;52.012;8.724;2023-05-07T07:38:56;100476.72;;;15.38;84.62
11223;BME280;5668;52.012;8.724;2023-05-07T07:41:24;100477.28;;;15.41;84.72
11223;BME280;5668;52.012;8.724;2023-05-07T07:43:51;100475.22;;;15.45;84.54
11223;BME280;5668;52.012;8.724;2023-05-07T07:46:19;100475.94;;;15.47;84.35
11223;BME280;5668;52.012;8.724;2023-05-07T07:48:46;100482.00;;;15.47;83.98
11223;BME280;5668;52.012;8.724;2023-05-07T07:51:13;100478.03;;;15.53;83.91
11223;BME280;5668;52.012;8.724;2023-05-07T07:53:40;100479.16;;;15.60;84.05
11223;BME280;5668;52.012;8.724;2023-05-07T07:56:08;100483.16;;;15.64;83.81
11223;BME280;5668;52.012;8.724;2023-05-07T07:58:36;100483.03;;;15.66;83.04
11223;BME280;5668;52.012;8.724;2023-05-07T08:01:05;100486.88;;;15.71;83.29
11223;BME280;5668;52.012;8.724;2023-05-07T08:03:32;100483.03;;;15.75;83.30
11223;BME280;5668;52.012;8.724;2023-05-07T08:05:59;100494.06;;;15.79;83.53
11223;BME280;5668;52.012;8.724;2023-05-07T08:08:26;100490.66;;;15.78;82.97
11223;BME280;5668;52.012;8.724;2023-05-07T08:10:54;100487.72;;;15.81;82.67
11223;BME280;5668;52.012;8.724;2023-05-07T08:13:21;100492.72;;;15.84;82.25
11223;BME280;5668;52.012;8.724;2023-05-07T08:15:50;100490.50;;;15.90;82.22
11223;BME280;5668;52.012;8.724;2023-05-07T08:18:17;100495.19;;;15.96;82.44
11223;BME280;5668;52.012;8.724;2023-05-07T08:20:44;100489.69;;;15.99;82.69
11223;BME280;5668;52.012;8.724;2023-05-07T08:23:11;100490.94;;;16.04;82.89
11223;BME280;5668;52.012;8.724;2023-05-07T08:25:39;100488.88;;;16.08;82.32
11223;BME280;5668;52.012;8.724;2023-05-07T08:28:06;100492.16;;;16.10;81.99
11223;BME280;5668;52.012;8.724;2023-05-07T08:30:33;100491.91;;;16.13;82.18
11223;BME280;5668;52.012;8.724;2023-05-07T08:33:02;100494.38;;;16.14;81.81
11223;BME280;5668;52.012;8.724;2023-05-07T08:35:29;100494.09;;;16.17;81.53
11223;BME280;5668;52.012;8.724;2023-05-07T08:37:57;100486.09;;;16.19;81.43
11223;BME280;5668;52.012;8.724;2023-05-07T08:40:26;100489.41;;;16.21;81.74
11223;BME280;5668;52.012;8.724;2023-05-07T08:42:53;100486.34;;;16.25;81.72
11223;BME280;5668;52.012;8.724;2023-05-07T08:45:24;100494.09;;;16.27;81.59
11223;BME280;5668;52.012;8.724;2023-05-07T08:47:55;100494.66;;;16.31;81.59
11223;BME280;5668;52.012;8.724;2023-05-07T08:50:26;100502.09;;;16.35;80.90
11223;BME280;5668;52.012;8.724;2023-05-07T08:52:54;100499.47;;;16.35;80.69
11223;BME280;5668;52.012;8.724;2023-05-07T08:55:23;100495.75;;;16.38;80.31
11223;BME280;5668;52.012;8.724;2023-05-07T08:57:51;100497.13;;;16.42;80.07
11223;BME280;5668;52.012;8.724;2023-05-07T09:00:19;100493.78;;;16.49;80.44
11223;BME280;5668;52.012;8.724;2023-05-07T09:02:46;100495.97;;;16.54;80.52
11223;BME280;5668;52.012;8.724;2023-05-07T09:05:14;100487.72;;;16.58;80.55
11223;BME280;5668;52.012;8.724;2023-05-07T09:07:42;100501.94;;;16.66;80.98
11223;BME280;5668;52.012;8.724;2023-05-07T09:10:11;100493.38;;;16.73;80.50
11223;BME280;5668;52.012;8.724;2023-05-07T09:12:40;100501.78;;;16.77;79.90
11223;BME280;5668;52.012;8.724;2023-05-07T09:15:08;100500.13;;;16.76;79.38
11223;BME280;5668;52.012;8.724;2023-05-07T09:17:36;100506.47;;;16.83;78.97
11223;BME280;5668;52.012;8.724;2023-05-07T09:20:05;100500.91;;;16.86;78.45
11223;BME280;5668;52.012;8.724;2023-05-07T09:22:33;100506.59;;;16.91;78.00
11223;BME280;5668;52.012;8.724;2023-05-07T09:25:02;100506.16;;;16.95;78.33
11223;BME280;5668;52.012;8.724;2023-05-07T09:27:30;100510.97;;;17.00;78.21
11223;BME280;5668;52.012;8.724;2023-05-07T09:29:58;100514.97;;;17.04;78.05
11223;BME280;5668;52.012;8.724;2023-05-07T09:32:26;100509.72;;;17.04;77.75
11223;BME280;5668;52.012;8.724;2023-05-07T09:34:54;100516.19;;;17.10;77.37
11223;BME280;5668;52.012;8.724;2023-05-07T09:37:21;100512.16;;;17.15;77.46
11223;BME280;5668;52.012;8.724;2023-05-07T09:39:49;100516.28;;;17.18;76.89
11223;BME280;5668;52.012;8.724;2023-05-07T09:42:23;100511.97;;;17.26;76.40
11223;BME280;5668;52.012;8.724;2023-05-07T09:44:51;100509.88;;;17.30;76.97
11223;BME280;5668;52.012;8.724;2023-05-07T09:47:19;100506.69;;;17.36;76.71
11223;BME280;5668;52.012;8.724;2023-05-07T09:49:48;100506.53;;;17.37;75.75
11223;BME280;5668;52.012;8.724;2023-05-07T09:52:15;100503.16;;;17.45;76.33
11223;BME280;5668;52.012;8.724;2023-05-07T09:54:43;100505.06;;;17.53;76.05
11223;BME280;5668;52.012;8.724;2023-05-07T09:57:12;100498.81;;;17.54;75.85
11223;BME280;5668;52.012;8.724;2023-05-07T09:59:43;100500.50;;;17.55;76.07
11223;BME280;5668;52.012;8.724;2023-05-07T10:02:11;100492.97;;;17.60;75.82
11223;BME280;5668;52.012;8.724;2023-05-07T10:04:40;100497.97;;;17.63;75.99
11223;BME280;5668;52.012;8.724;2023-05-07T10:07:07;100493.28;;;17.66;75.58
11223;BME280;5668;52.012;8.724;2023-05-07T10:09:36;100495.91;;;17.66;75.62
11223;BME280;5668;52.012;8.724;2023-05-07T10:12:06;100505.00;;;17.72;75.58
11223;BME280;5668;52.012;8.724;2023-05-07T10:14:34;100506.47;;;17.74;74.53
11223;BME280;5668;52.012;8.724;2023-05-07T10:17:03;100509.94;;;17.75;74.37
11223;BME280;5668;52.012;8.724;2023-05-07T10:19:31;100506.03;;;17.79;74.98
11223;BME280;5668;52.012;8.724;2023-05-07T10:22:03;100510.41;;;17.88;75.09
11223;BME280;5668;52.012;8.724;2023-05-07T10:24:33;100505.44;;;17.85;75.27
11223;BME280;5668;52.012;8.724;2023-05-07T10:27:02;100505.66;;;17.92;75.02
11223;BME280;5668;52.012;8.724;2023-05-07T10:29:36;100503.25;;;17.98;75.41
11223;BME280;5668;52.012;8.724;2023-05-07T10:32:33;100500.34;;;18.01;75.11
11223;BME280;5668;52.012;8.724;2023-05-07T10:35:05;100511.09;;;18.08;75.19
11223;BME280;5668;52.012;8.724;2023-05-07T10:37:34;100511.78;;;18.10;74.99
11223;BME280;5668;52.012;8.724;2023-05-07T10:40:02;100509.66;;;18.13;74.53
11223;BME280;5668;52.012;8.724;2023-05-07T10:42:30;100510.41;;;18.24;75.35
11223;BME280;5668;52.012;8.724;2023-05-07T10:44:57;100508.00;;;18.30;75.01
11223;BME280;5668;52.012;8.724;2023-05-07T10:47:24;100505.28;;;18.40;73.57
11223;BME280;5668;52.012;8.724;2023-05-07T10:50:21;100512.78;;;18.35;72.39
11223;BME280;5668;52.012;8.724;2023-05-07T10:53:23;100518.75;;;18.37;73.89
11223;BME280;5668;52.012;8.724;2023-05-07T10:58:56;100514.59;;;18.52;74.15
11223;BME280;5668;52.012;8.724;2023-05-07T11:01:52;100508.72;;;18.58;71.23
11223;BME280;5668;52.012;8.724;2023-05-07T11:04:20;100510.44;;;18.67;71.55
11223;BME280;5668;52.012;8.724;2023-05-07T11:09:58;100508.13;;;18.90;72.95
11223;BME280;5668;52.012;8.724;2023-05-07T11:15:38;100506.91;;;19.10;72.08
11223;BME280;5668;52.012;8.724;2023-05-07T11:18:06;100503.34;;;19.19;72.55
11223;BME280;5668;52.012;8.724;2023-05-07T11:20:59;100500.72;;;19.27;71.79
11223;BME280;5668;52.012;8.724;2023-05-07T11:26:47;100505.56;;;19.40;71.37
11223;BME280;5668;52.012;8.724;2023-05-07T11:29:16;100499.50;;;19.48;70.97
11223;BME280;5668;52.012;8.724;2023-05-07T11:31:47;100506.59;;;19.47;69.29
11223;BME280;5668;52.012;8.724;2023-05-07T11:34:19;100508.38;;;19.39;68.53
11223;BME280;5668;52.012;8.724;2023-05-07T11:36:48;100505.88;;;19.37;69.89
11223;BME280;5668;52.012;8.724;2023-05-07T11:39:26;100507.13;;;19.25;69.34
11223;BME280;5668;52.012;8.724;2023-05-07T11:41:54;100506.34;;;19.32;70.20
11223;BME280;5668;52.012;8.724;2023-05-07T11:44:22;100505.56;;;19.40;69.57
11223;BME280;5668;52.012;8.724;2023-05-07T11:46:49;100506.19;;;19.34;69.06
11223;BME280;5668;52.012;8.724;2023-05-07T11:49:17;100506.72;;;19.38;69.86
11223;BME280;5668;52.012;8.724;2023-05-07T11:51:45;100500.28;;;19.40;70.82
11223;BME280;5668;52.012;8.724;2023-05-07T11:54:16;100504.31;;;19.52;71.60
11223;BME280;5668;52.012;8.724;2023-05-07T11:56:44;100504.41;;;19.43;68.66
11223;BME280;5668;52.012;8.724;2023-05-07T11:59:17;100497.97;;;19.37;69.19
11223;BME280;5668;52.012;8.724;2023-05-07T12:01:46;100511.56;;;19.50;70.27
11223;BME280;5668;52.012;8.724;2023-05-07T12:04:13;100501.69;;;19.52;69.01
11223;BME280;5668;52.012;8.724;2023-05-07T12:06:41;100504.31;;;19.52;68.12
11223;BME280;5668;52.012;8.724;2023-05-07T12:09:08;100505.97;;;19.53;68.25
11223;BME280;5668;52.012;8.724;2023-05-07T12:11:37;100498.94;;;19.62;67.32
11223;BME280;5668;52.012;8.724;2023-05-07T12:14:06;100497.75;;;19.64;67.62
11223;BME280;5668;52.012;8.724;2023-05-07T12:16:35;100510.50;;;19.77;67.76
11223;BME280;5668;52.012;8.724;2023-05-07T12:19:02;100508.34;;;19.73;65.78
11223;BME280;5668;52.012;8.724;2023-05-07T12:21:30;100503.03;;;19.64;66.09
11223;BME280;5668;52.012;8.724;2023-05-07T12:23:57;100508.94;;;19.58;66.22
11223;BME280;5668;52.012;8.724;2023-05-07T12:26:24;100499.66;;;19.46;66.90
11223;BME280;5668;52.012;8.724;2023-05-07T12:28:52;100504.66;;;19.57;68.48
11223;BME280;5668;52.012;8.724;2023-05-07T12:31:19;100508.31;;;19.64;67.50
11223;BME280;5668;52.012;8.724;2023-05-07T12:33:48;100504.69;;;19.65;66.79
11223;BME280;5668;52.012;8.724;2023-05-07T12:36:16;100500.25;;;19.66;67.43
11223;BME280;5668;52.012;8.724;2023-05-07T12:38:43;100502.75;;;19.76;67.51
11223;BME280;5668;52.012;8.724;2023-05-07T12:41:11;100506.22;;;19.84;67.42
11223;BME280;5668;52.012;8.724;2023-05-07T12:43:39;100504.91;;;19.88;66.94
11223;BME280;5668;52.012;8.724;2023-05-07T12:46:07;100521.72;;;19.95;65.90
11223;BME280;5668;52.012;8.724;2023-05-07T12:48:37;100515.97;;;19.92;64.22
11223;BME280;5668;52.012;8.724;2023-05-07T12:51:06;100513.97;;;19.86;64.00
11223;BME280;5668;52.012;8.724;2023-05-07T12:53:40;100520.41;;;19.83;64.85
11223;BME280;5668;52.012;8.724;2023-05-07T12:56:08;100519.38;;;19.68;64.87
11223;BME280;5668;52.012;8.724;2023-05-07T12:58:36;100529.28;;;19.74;65.68
11223;BME280;5668;52.012;8.724;2023-05-07T13:01:05;100531.09;;;19.82;66.38
11223;BME280;5668;52.012;8.724;2023-05-07T13:03:34;100527.44;;;19.66;64.33
11223;BME280;5668;52.012;8.724;2023-05-07T13:06:03;100532.38;;;19.61;64.99
11223;BME280;5668;52.012;8.724;2023-05-07T13:08:33;100523.47;;;19.62;65.53
11223;BME280;5668;52.012;8.724;2023-05-07T13:11:03;100533.19;;;19.70;65.93
11223;BME280;5668;52.012;8.724;2023-05-07T13:13:31;100524.16;;;19.73;65.10
11223;BME280;5668;52.012;8.724;2023-05-07T13:15:58;100532.06;;;19.73;65.92
11223;BME280;5668;52.012;8.724;2023-05-07T13:18:26;100525.81;;;19.74;65.23